createdAt,value
2018-10-19T00:00:52.861Z,14.20
2018-10-19T00:03:55.975Z,13.47
2018-10-19T00:06:59.096Z,12.13
2018-10-19T00:10:02.248Z,10.67
2018-10-19T00:13:05.731Z,8.87
2018-10-19T00:16:08.780Z,11.27
2018-10-19T00:19:11.816Z,8.77
2018-10-19T00:22:14.955Z,9.17
2018-10-19T00:25:18.015Z,8.57
2018-10-19T00:28:21.096Z,6.77
2018-10-19T00:31:24.156Z,8.83
2018-10-19T00:34:28.287Z,8.93
2018-10-19T00:37:31.437Z,7.27
2018-10-19T00:40:34.500Z,9.03
2018-10-19T00:43:37.552Z,7.43
2018-10-19T00:46:40.676Z,7.30
2018-10-19T00:49:43.807Z,5.90
2018-10-19T00:52:46.856Z,6.40
2018-10-19T00:55:49.999Z,7.87
2018-10-19T00:58:53.146Z,5.07
2018-10-19T01:01:56.251Z,5.50
2018-10-19T01:04:59.485Z,7.87
2018-10-19T01:08:02.489Z,7.20
2018-10-19T01:11:05.708Z,8.50
2018-10-19T01:14:08.711Z,5.40
2018-10-19T01:17:11.866Z,5.30
2018-10-19T01:20:14.865Z,5.03
2018-10-19T01:23:17.973Z,5.33
2018-10-19T01:26:21.011Z,4.30
2018-10-19T01:29:24.064Z,5.03
2018-10-19T01:32:27.219Z,5.13
2018-10-19T01:35:30.331Z,6.10
2018-10-19T01:38:33.417Z,5.03
2018-10-19T01:41:36.563Z,5.83
2018-10-19T01:44:39.697Z,4.13
2018-10-19T01:47:43.153Z,5.13
2018-10-19T01:50:46.220Z,5.63
2018-10-19T01:53:49.291Z,6.13
2018-10-19T01:56:52.441Z,4.93
2018-10-19T01:59:55.454Z,3.57
2018-10-19T02:02:58.585Z,3.87
2018-10-19T02:06:01.616Z,3.93
2018-10-19T02:09:05.994Z,4.80
2018-10-19T02:12:09.189Z,4.70
2018-10-19T02:15:12.367Z,4.50
2018-10-19T02:18:15.464Z,4.10
2018-10-19T02:21:18.547Z,3.07
2018-10-19T02:24:21.586Z,2.90
2018-10-19T02:27:24.647Z,4.40
2018-10-19T02:30:27.788Z,3.63
2018-10-19T02:33:30.956Z,3.03
2018-10-19T02:36:34.146Z,3.00
2018-10-19T02:39:37.212Z,4.03
2018-10-19T02:42:40.239Z,5.43
2018-10-19T02:45:43.308Z,3.57
2018-10-19T02:48:46.400Z,11.27
2018-10-19T02:51:49.464Z,5.07
2018-10-19T02:54:52.516Z,4.00
2018-10-19T02:57:55.531Z,6.33
2018-10-19T03:00:58.643Z,4.80
2018-10-19T03:04:01.776Z,5.73
2018-10-19T03:07:05.348Z,5.73
2018-10-19T03:10:08.976Z,3.30
2018-10-19T03:13:12.119Z,4.10
2018-10-19T03:16:15.198Z,4.10
2018-10-19T03:19:18.255Z,3.60
2018-10-19T03:22:21.320Z,6.67
2018-10-19T03:25:24.388Z,2.97
2018-10-19T03:28:27.427Z,5.35
2018-10-19T03:31:30.568Z,4.13
2018-10-19T03:34:33.619Z,1.80
2018-10-19T03:37:36.828Z,3.30
2018-10-19T03:40:39.895Z,4.50
2018-10-19T03:43:42.956Z,2.70
2018-10-19T03:46:46.090Z,3.43
2018-10-19T03:49:49.152Z,3.40
2018-10-19T03:52:52.337Z,5.07
2018-10-19T03:55:55.475Z,3.30
2018-10-19T03:58:58.609Z,2.80
2018-10-19T04:02:01.631Z,4.40
2018-10-19T04:05:04.776Z,4.03
2018-10-19T04:08:07.790Z,5.07
2018-10-19T04:11:10.941Z,2.80
2018-10-19T04:14:14.031Z,3.10
2018-10-19T04:17:17.181Z,5.90
2018-10-19T04:20:20.151Z,8.30
2018-10-19T04:23:23.279Z,3.43
2018-10-19T04:26:26.510Z,4.77
2018-10-19T04:29:29.584Z,4.87
2018-10-19T04:32:32.722Z,5.93
2018-10-19T04:35:35.871Z,9.10
2018-10-19T04:38:38.980Z,3.83
2018-10-19T04:41:42.253Z,11.20
2018-10-19T04:44:45.288Z,7.73
2018-10-19T04:47:48.447Z,5.67
2018-10-19T04:50:51.460Z,10.73
2018-10-19T04:53:54.543Z,8.97
2018-10-19T04:56:57.761Z,9.03
2018-10-19T05:00:00.856Z,5.70
2018-10-19T05:03:03.958Z,7.00
2018-10-19T05:06:07.141Z,10.60
2018-10-19T05:09:11.825Z,5.53
2018-10-19T05:12:14.938Z,4.37
2018-10-19T05:15:18.018Z,11.30
2018-10-19T05:18:21.153Z,9.83
2018-10-19T05:21:24.240Z,12.57
2018-10-19T05:24:27.904Z,9.27
2018-10-19T05:27:30.970Z,11.73
2018-10-19T05:30:34.100Z,14.60
2018-10-19T05:33:37.243Z,18.43
2018-10-19T05:36:40.316Z,16.93
2018-10-19T05:39:43.372Z,9.60
2018-10-19T05:42:46.423Z,11.10
2018-10-19T05:45:49.515Z,15.10
2018-10-19T05:48:52.575Z,10.17
2018-10-19T05:51:55.763Z,21.70
2018-10-19T05:54:58.819Z,8.90
2018-10-19T05:58:01.891Z,9.03
2018-10-19T06:01:05.229Z,12.77
2018-10-19T06:04:08.275Z,12.13
2018-10-19T06:07:11.348Z,8.87
2018-10-19T06:10:14.495Z,8.23
2018-10-19T06:13:17.580Z,15.57
2018-10-19T06:16:20.699Z,8.03
2018-10-19T06:19:23.774Z,8.30
2018-10-19T06:22:26.823Z,13.07
2018-10-19T06:25:29.948Z,10.17
2018-10-19T06:28:33.031Z,7.93
2018-10-19T06:31:36.096Z,6.03
2018-10-19T06:34:39.183Z,8.37
2018-10-19T06:37:42.278Z,9.67
2018-10-19T06:40:45.373Z,7.73
2018-10-19T06:43:48.491Z,6.87
2018-10-19T06:46:51.672Z,9.30
2018-10-19T06:49:54.686Z,7.73
2018-10-19T06:52:57.771Z,7.67
2018-10-19T06:56:00.980Z,9.27
2018-10-19T06:59:04.130Z,12.07
2018-10-19T07:02:07.216Z,6.55
2018-10-19T07:05:10.297Z,9.70
2018-10-19T07:08:13.342Z,6.87
2018-10-19T07:11:16.574Z,7.90
2018-10-19T07:14:19.536Z,8.27
2018-10-19T07:17:22.599Z,7.40
2018-10-19T07:20:25.671Z,8.60
2018-10-19T07:23:28.781Z,9.90
2018-10-19T07:26:31.873Z,7.57
2018-10-19T07:29:35.054Z,7.73
2018-10-19T07:32:38.089Z,8.40
2018-10-19T07:35:41.182Z,5.57
2018-10-19T07:38:44.287Z,6.83
2018-10-19T07:41:47.450Z,7.53
2018-10-19T07:44:50.487Z,6.83
2018-10-19T07:47:53.641Z,8.37
2018-10-19T07:50:56.673Z,7.53
2018-10-19T07:53:59.791Z,5.73
2018-10-19T07:57:02.797Z,5.93
2018-10-19T08:00:07.155Z,7.10
2018-10-19T08:03:10.328Z,6.03
2018-10-19T08:06:13.707Z,10.17
2018-10-19T08:09:16.826Z,5.93
2018-10-19T08:12:19.885Z,6.37
2018-10-19T08:15:22.975Z,6.57
2018-10-19T08:18:26.179Z,9.03
2018-10-19T08:21:29.224Z,7.77
2018-10-19T08:24:32.272Z,6.67
2018-10-19T08:27:35.477Z,9.20
2018-10-19T08:30:38.519Z,6.10
2018-10-19T08:33:41.608Z,6.70
2018-10-19T08:36:45.751Z,7.33
2018-10-19T08:39:48.823Z,7.10
2018-10-19T08:42:51.977Z,8.10
2018-10-19T08:46:01.152Z,5.95
2018-10-19T08:49:04.525Z,8.07
2018-10-19T08:52:07.593Z,6.33
2018-10-19T08:55:10.780Z,4.50
2018-10-19T08:58:13.842Z,7.67
2018-10-19T09:01:16.900Z,7.67
2018-10-19T09:04:19.960Z,4.33
2018-10-19T09:07:23.094Z,5.23
2018-10-19T09:10:26.171Z,6.33
2018-10-19T09:13:29.214Z,5.93
2018-10-19T09:16:32.363Z,4.80
2018-10-19T09:19:35.391Z,6.07
2018-10-19T09:22:38.433Z,5.87
2018-10-19T09:25:41.487Z,7.90
2018-10-19T09:28:44.539Z,6.17
2018-10-19T09:31:47.588Z,6.97
2018-10-19T09:34:50.658Z,4.83
2018-10-19T09:37:53.701Z,5.33
2018-10-19T09:40:56.897Z,4.53
2018-10-19T09:43:59.971Z,5.37
2018-10-19T09:47:03.105Z,4.83
2018-10-19T09:50:06.551Z,5.93
2018-10-19T09:53:09.716Z,5.87
2018-10-19T09:56:12.711Z,4.97
2018-10-19T09:59:15.892Z,5.40
2018-10-19T10:02:18.881Z,6.40
2018-10-19T10:05:22.027Z,3.87
2018-10-19T10:08:25.417Z,4.20
2018-10-19T10:11:28.452Z,4.37
2018-10-19T10:14:31.561Z,4.10
2018-10-19T10:17:34.687Z,4.87
2018-10-19T10:20:38.283Z,4.08
2018-10-19T10:23:42.035Z,4.10
2018-10-19T10:26:45.117Z,6.73
2018-10-19T10:29:48.148Z,4.23
2018-10-19T10:32:51.191Z,4.23
2018-10-19T10:35:54.367Z,7.07
2018-10-19T10:38:57.623Z,6.70
2018-10-19T10:42:00.746Z,3.73
2018-10-19T10:45:03.895Z,4.13
2018-10-19T10:48:07.003Z,4.50
2018-10-19T10:51:10.078Z,3.97
2018-10-19T10:54:13.158Z,4.37
2018-10-19T10:57:16.247Z,5.60
2018-10-19T11:00:19.319Z,4.57
2018-10-19T11:03:22.395Z,4.47
2018-10-19T11:06:25.488Z,4.87
2018-10-19T11:09:28.648Z,4.57
2018-10-19T11:12:31.769Z,3.67
2018-10-19T11:15:34.879Z,5.57
2018-10-19T11:18:38.035Z,4.87
2018-10-19T11:21:41.183Z,4.13
2018-10-19T11:24:44.357Z,3.33
2018-10-19T11:27:47.381Z,4.57
2018-10-19T11:30:50.431Z,4.30
2018-10-19T11:33:53.562Z,3.40
2018-10-19T11:36:56.626Z,2.83
2018-10-19T11:40:27.223Z,3.73
2018-10-19T11:43:31.096Z,3.00
2018-10-19T11:46:34.313Z,3.03
2018-10-19T11:49:37.412Z,3.57
2018-10-19T11:52:40.484Z,3.90
2018-10-19T11:55:43.891Z,5.73
2018-10-19T11:58:46.964Z,3.50
2018-10-19T12:01:50.241Z,3.93
2018-10-19T12:04:53.484Z,3.73
2018-10-19T12:07:57.643Z,5.23
2018-10-19T12:11:00.769Z,3.73
2018-10-19T12:14:03.940Z,4.07
2018-10-19T12:17:07.112Z,3.83
2018-10-19T12:20:12.120Z,2.93
2018-10-19T12:23:17.384Z,6.33
2018-10-19T12:26:20.489Z,3.80
2018-10-19T12:29:23.553Z,5.37
2018-10-19T12:32:26.692Z,5.53
2018-10-19T12:35:29.817Z,3.67
2018-10-19T12:38:32.904Z,2.87
2018-10-19T12:41:36.107Z,3.97
2018-10-19T12:44:39.385Z,5.87
2018-10-19T12:47:43.578Z,3.13
2018-10-19T12:50:46.660Z,3.40
2018-10-19T12:53:49.875Z,5.60
2018-10-19T12:56:52.943Z,2.30
2018-10-19T12:59:56.271Z,4.30
2018-10-19T13:02:59.426Z,3.77
2018-10-19T13:06:02.575Z,2.77
2018-10-19T13:09:09.735Z,2.87
2018-10-19T13:12:12.929Z,4.27
2018-10-19T13:15:16.107Z,3.50
2018-10-19T13:18:19.180Z,3.30
2018-10-19T13:21:22.452Z,5.27
2018-10-19T13:24:25.928Z,2.67
2018-10-19T13:27:29.018Z,2.90
2018-10-19T13:30:32.124Z,2.70
2018-10-19T13:33:35.322Z,4.37
2018-10-19T13:36:38.401Z,4.17
2018-10-19T13:39:41.500Z,2.17
2018-10-19T13:42:44.993Z,2.57
2018-10-19T13:45:48.147Z,5.15
2018-10-19T13:48:51.202Z,3.23
2018-10-19T13:51:54.348Z,2.33
2018-10-19T13:54:57.422Z,3.10
2018-10-19T13:58:00.504Z,4.50
2018-10-19T14:01:03.688Z,3.83
2018-10-19T14:04:06.841Z,2.63
2018-10-19T14:07:09.908Z,2.53
2018-10-19T14:10:13.080Z,2.60
2018-10-19T14:13:16.217Z,2.20
2018-10-19T14:16:26.104Z,1.93
2018-10-19T14:19:30.169Z,2.30
2018-10-19T14:22:33.243Z,2.40
2018-10-19T14:25:36.352Z,2.60
2018-10-19T14:28:39.443Z,2.37
2018-10-19T14:31:42.547Z,2.70
2018-10-19T14:34:45.620Z,2.57
2018-10-19T14:37:48.719Z,2.00
2018-10-19T14:40:51.793Z,2.33
2018-10-19T14:43:54.863Z,2.63
2018-10-19T14:46:58.173Z,3.50
2018-10-19T14:50:01.220Z,2.73
2018-10-19T14:53:04.490Z,2.20
2018-10-19T14:56:07.596Z,1.70
2018-10-19T14:59:10.813Z,2.83
2018-10-19T15:02:13.814Z,1.30
2018-10-19T15:05:18.340Z,2.47
2018-10-19T15:08:21.435Z,2.40
2018-10-19T15:11:24.808Z,2.10
2018-10-19T15:14:27.639Z,2.40
2018-10-19T15:17:30.732Z,1.97
2018-10-19T15:20:33.831Z,2.37
2018-10-19T15:23:36.953Z,3.93
2018-10-19T15:26:40.074Z,2.73
2018-10-19T15:29:43.403Z,2.43
2018-10-19T15:32:46.455Z,2.50
2018-10-19T15:35:49.590Z,1.93
2018-10-19T15:38:52.828Z,2.47
2018-10-19T15:41:55.964Z,5.30
2018-10-19T15:44:59.084Z,2.97
2018-10-19T15:48:02.227Z,3.20
2018-10-19T15:51:05.962Z,2.23
2018-10-19T15:54:09.031Z,3.20
2018-10-19T15:57:12.048Z,1.93
2018-10-19T16:00:15.315Z,3.80
2018-10-19T16:03:18.590Z,1.90
2018-10-19T16:06:21.791Z,2.67
2018-10-19T16:09:24.976Z,2.30
2018-10-19T16:12:28.125Z,1.93
2018-10-19T16:15:31.268Z,2.73
2018-10-19T16:18:34.356Z,2.90
2018-10-19T16:21:37.472Z,1.90
2018-10-19T16:24:40.632Z,3.80
2018-10-19T16:27:43.825Z,2.83
2018-10-19T16:30:46.892Z,3.63
2018-10-19T16:33:50.059Z,4.33
2018-10-19T16:36:53.262Z,2.20
2018-10-19T16:39:58.422Z,3.90
2018-10-19T16:43:01.503Z,3.83
2018-10-19T16:46:04.609Z,3.50
2018-10-19T16:49:08.683Z,5.33
2018-10-19T16:52:11.886Z,2.90
2018-10-19T16:55:14.956Z,8.20
2018-10-19T16:58:18.190Z,9.77
2018-10-19T17:01:21.337Z,13.23
2018-10-19T17:04:24.389Z,90.03
2018-10-19T17:07:27.568Z,29.73
2018-10-19T17:10:30.736Z,17.90
2018-10-19T17:13:33.896Z,21.82
2018-10-19T17:16:37.370Z,16.00
2018-10-19T17:19:40.467Z,15.63
2018-10-19T17:22:43.538Z,14.60
2018-10-19T17:25:46.700Z,16.57
2018-10-19T17:28:49.949Z,14.13
2018-10-19T17:31:53.163Z,22.23
2018-10-19T17:34:56.374Z,10.73
2018-10-19T17:37:59.894Z,15.63
2018-10-19T17:41:03.005Z,13.17
2018-10-19T17:44:06.287Z,13.23
2018-10-19T17:47:10.491Z,13.07
2018-10-19T17:50:13.592Z,15.37
2018-10-19T17:53:16.846Z,13.17
2018-10-19T17:56:19.888Z,11.90
2018-10-19T17:59:23.000Z,17.30
2018-10-19T18:02:26.067Z,13.37
2018-10-19T18:05:29.312Z,12.80
2018-10-19T18:08:32.453Z,14.70
2018-10-19T18:11:35.734Z,11.50
2018-10-19T18:14:38.824Z,12.37
2018-10-19T18:17:42.388Z,11.53
2018-10-19T18:20:45.632Z,14.03
2018-10-19T18:23:49.316Z,14.10
2018-10-19T18:26:52.501Z,13.10
2018-10-19T18:29:55.536Z,42.15
2018-10-19T18:32:58.640Z,127.03
2018-10-19T18:36:01.671Z,99.33
2018-10-19T18:39:07.735Z,77.10
2018-10-19T18:42:10.796Z,57.50
2018-10-19T18:45:13.853Z,73.73
2018-10-19T18:48:16.910Z,97.10
2018-10-19T18:51:19.956Z,79.07
2018-10-19T18:54:23.047Z,62.97
2018-10-19T18:57:26.123Z,55.43
2018-10-19T19:00:29.163Z,46.83
2018-10-19T19:03:32.256Z,43.83
2018-10-19T19:06:35.518Z,42.50
2018-10-19T19:09:38.615Z,42.73
2018-10-19T19:12:41.703Z,172.23
2018-10-19T19:15:44.796Z,149.20
2018-10-19T19:18:47.994Z,105.00
2018-10-19T19:21:51.083Z,78.20
2018-10-19T19:24:59.556Z,65.37
2018-10-19T19:28:02.716Z,55.20
2018-10-19T19:31:05.919Z,50.27
2018-10-19T19:34:14.400Z,56.35
2018-10-19T19:37:17.566Z,46.07
2018-10-19T19:40:20.768Z,27.80
2018-10-19T19:43:23.904Z,25.33
2018-10-19T19:46:27.092Z,21.60
2018-10-19T19:49:36.480Z,20.87
2018-10-19T19:52:39.559Z,19.80
2018-10-19T19:55:42.892Z,19.87
2018-10-19T19:58:45.949Z,19.90
2018-10-19T20:01:49.090Z,17.33
2018-10-19T20:04:52.160Z,17.00
2018-10-19T20:07:55.271Z,14.70
2018-10-19T20:10:58.430Z,21.80
2018-10-19T20:14:01.642Z,73.93
2018-10-19T20:17:04.785Z,93.50
2018-10-19T20:20:09.393Z,84.33
2018-10-19T20:23:12.542Z,67.50
2018-10-19T20:26:15.585Z,60.47
2018-10-19T20:29:18.606Z,62.43
2018-10-19T20:32:21.796Z,53.03
2018-10-19T20:35:24.750Z,37.97
2018-10-19T20:38:27.816Z,42.37
2018-10-19T20:41:31.030Z,37.87
2018-10-19T20:44:34.204Z,30.33
2018-10-19T20:47:37.444Z,22.97
2018-10-19T20:50:40.495Z,27.43
2018-10-19T20:53:43.634Z,29.03
2018-10-19T20:56:46.760Z,27.33
2018-10-19T20:59:49.881Z,25.93
2018-10-19T21:02:52.927Z,22.03
2018-10-19T21:05:57.460Z,23.47
2018-10-19T21:09:00.624Z,21.80
2018-10-19T21:12:03.808Z,21.53
2018-10-19T21:15:08.325Z,23.73
2018-10-19T21:18:11.412Z,23.30
2018-10-19T21:21:14.512Z,22.23
2018-10-19T21:27:28.812Z,18.20
2018-10-19T21:30:32.188Z,22.13
2018-10-19T21:33:35.324Z,19.93
2018-10-19T21:36:38.479Z,40.20
2018-10-19T21:39:41.591Z,108.00
2018-10-19T21:42:45.041Z,142.27
2018-10-19T21:45:48.119Z,112.00
2018-10-19T21:48:51.945Z,88.87
2018-10-19T21:51:55.012Z,72.83
2018-10-19T21:54:58.130Z,57.03
2018-10-19T21:58:01.175Z,50.97
2018-10-19T22:01:04.239Z,43.07
2018-10-19T22:04:07.348Z,36.67
2018-10-19T22:07:10.407Z,39.07
2018-10-19T22:10:13.580Z,59.25
2018-10-19T22:13:16.661Z,43.67
2018-10-19T22:16:19.727Z,37.10
2018-10-19T22:19:22.819Z,37.90
2018-10-19T22:22:25.888Z,31.40
2018-10-19T22:25:28.943Z,27.50
2018-10-19T22:28:32.060Z,28.57
2018-10-19T22:31:35.119Z,29.27
2018-10-19T22:34:38.211Z,38.60
2018-10-19T22:37:41.352Z,26.60
2018-10-19T22:40:44.403Z,21.67
2018-10-19T22:43:47.443Z,23.90
2018-10-19T22:46:50.577Z,22.43
2018-10-19T22:49:53.619Z,20.90
2018-10-19T22:52:56.712Z,19.37
2018-10-19T22:55:59.767Z,17.73
2018-10-19T22:59:02.933Z,20.47
2018-10-19T23:02:06.184Z,18.33
2018-10-19T23:05:09.321Z,18.63
2018-10-19T23:08:12.436Z,18.97
2018-10-19T23:11:15.560Z,17.00
2018-10-19T23:14:18.552Z,15.50
2018-10-19T23:17:21.606Z,16.53
2018-10-19T23:20:24.739Z,14.90
2018-10-19T23:23:27.804Z,17.03
2018-10-19T23:26:30.817Z,15.37
2018-10-19T23:29:33.844Z,13.20
2018-10-19T23:32:36.998Z,14.60
2018-10-19T23:35:40.052Z,13.17
2018-10-19T23:38:43.189Z,14.80
2018-10-19T23:41:46.269Z,15.60
2018-10-19T23:44:49.328Z,13.70
2018-10-19T23:47:52.419Z,11.90
2018-10-19T23:50:55.551Z,12.50
2018-10-19T23:53:58.607Z,11.73
2018-10-19T23:57:01.700Z,11.13
